sensor_id;sensor_type;location;lat;lon;timestamp;pressure;altitude;pressure_sealevel;temperature;humidity
45864;BME280;31579;52.354;16.974;2023-02-13T00:00:09;275.4;;;-146.1;100.0
45864;BME280;31579;52.354;16.974;2023-02-13T00:01:06;277.2;;;-146.1;100.0
45864;BME280;31579;52.354;16.974;2023-02-13T00:02:10;280.4;;;-146.1;100.0
45864;BME280;31579;52.354;16.974;2023-02-13T00:03:14;283.3;;;-146.1;100.0
45864;BME280;31579;52.354;16.974;2023-02-13T00:04:17;347.5;;;-146.1;100.0
45864;BME280;31579;52.354;16.974;2023-02-13T00:05:27;279.6;;;-146.1;100.0
45864;BME280;31579;52.354;16.974;2023-02-13T00:06:31;273.3;;;-146.1;100.0
45864;BME280;31579;52.354;16.974;2023-02-13T00:07:35;274.5;;;-146.1;100.0
45864;BME280;31579;52.354;16.974;2023-02-13T00:08:39;275.9;;;-146.1;100.0
45864;BME280;31579;52.354;16.974;2023-02-13T00:09:43;276.9;;;-146.1;100.0
45864;BME280;31579;52.354;16.974;2023-02-13T00:10:47;277.6;;;-146.1;100.0
45864;BME280;31579;52.354;16.974;2023-02-13T00:11:51;279.7;;;-146.1;100.0
45864;BME280;31579;52.354;16.974;2023-02-13T00:12:55;281.9;;;-146.1;100.0
45864;BME280;31579;52.354;16.974;2023-02-13T00:13:59;283.5;;;-146.1;100.0
45864;BME280;31579;52.354;16.974;2023-02-13T00:15:01;440.2;;;-146.1;100.0
45864;BME280;31579;52.354;16.974;2023-02-13T00:16:06;364.3;;;-146.1;100.0
45864;BME280;31579;52.354;16.974;2023-02-13T00:17:10;347.8;;;-146.1;100.0
45864;BME280;31579;52.354;16.974;2023-02-13T00:18:14;338.0;;;-146.1;100.0
45864;BME280;31579;52.354;16.974;2023-02-13T00:19:18;330.2;;;-146.1;100.0
45864;BME280;31579;52.354;16.974;2023-02-13T00:20:22;324.1;;;-146.1;100.0
45864;BME280;31579;52.354;16.974;2023-02-13T00:21:26;319.7;;;-146.1;100.0
45864;BME280;31579;52.354;16.974;2023-02-13T00:22:33;317.2;;;-146.1;100.0
45864;BME280;31579;52.354;16.974;2023-02-13T00:23:34;315.2;;;-146.1;100.0
45864;BME280;31579;52.354;16.974;2023-02-13T00:24:38;314.0;;;-146.1;100.0
45864;BME280;31579;52.354;16.974;2023-02-13T00:25:42;312.7;;;-146.1;100.0
45864;BME280;31579;52.354;16.974;2023-02-13T00:26:46;312.2;;;-146.1;100.0
45864;BME280;31579;52.354;16.974;2023-02-13T00:27:50;312.7;;;-146.1;100.0
45864;BME280;31579;52.354;16.974;2023-02-13T00:28:55;311.8;;;-146.1;100.0
45864;BME280;31579;52.354;16.974;2023-02-13T00:29:58;309.4;;;-146.1;100.0
45864;BME280;31579;52.354;16.974;2023-02-13T00:31:03;306.6;;;-146.1;100.0
45864;BME280;31579;52.354;16.974;2023-02-13T00:32:06;304.4;;;-146.1;100.0
45864;BME280;31579;52.354;16.974;2023-02-13T00:33:11;305.7;;;-146.1;100.0
45864;BME280;31579;52.354;16.974;2023-02-13T00:34:15;303.3;;;-146.1;100.0
45864;BME280;31579;52.354;16.974;2023-02-13T00:35:19;302.2;;;-146.1;100.0
45864;BME280;31579;52.354;16.974;2023-02-13T00:36:24;306.8;;;-146.1;100.0
45864;BME280;31579;52.354;16.974;2023-02-13T00:37:28;306.2;;;-146.1;100.0
45864;BME280;31579;52.354;16.974;2023-02-13T00:38:33;308.3;;;-146.1;100.0
45864;BME280;31579;52.354;16.974;2023-02-13T00:39:37;306.3;;;-146.1;100.0
45864;BME280;31579;52.354;16.974;2023-02-13T00:40:41;305.1;;;-146.1;100.0
45864;BME280;31579;52.354;16.974;2023-02-13T00:41:45;304.4;;;-146.1;100.0
45864;BME280;31579;52.354;16.974;2023-02-13T00:42:49;304.9;;;-146.1;100.0
45864;BME280;31579;52.354;16.974;2023-02-13T00:43:53;304.0;;;-146.1;100.0
45864;BME280;31579;52.354;16.974;2023-02-13T00:44:57;303.1;;;-146.1;100.0
45864;BME280;31579;52.354;16.974;2023-02-13T00:46:01;303.2;;;-146.1;100.0
45864;BME280;31579;52.354;16.974;2023-02-13T00:47:06;305.6;;;-146.1;100.0
45864;BME280;31579;52.354;16.974;2023-02-13T00:48:10;306.1;;;-146.1;100.0
45864;BME280;31579;52.354;16.974;2023-02-13T00:49:14;305.3;;;-146.1;100.0
45864;BME280;31579;52.354;16.974;2023-02-13T00:50:17;381.8;;;-146.1;100.0
45864;BME280;31579;52.354;16.974;2023-02-13T00:51:21;341.9;;;-146.1;100.0
45864;BME280;31579;52.354;16.974;2023-02-13T00:52:24;420.0;;;-146.1;100.0
45864;BME280;31579;52.354;16.974;2023-02-13T00:53:28;373.0;;;-146.1;100.0
45864;BME280;31579;52.354;16.974;2023-02-13T00:54:32;359.9;;;-146.1;100.0
45864;BME280;31579;52.354;16.974;2023-02-13T00:55:36;350.8;;;-146.1;100.0
45864;BME280;31579;52.354;16.974;2023-02-13T00:56:40;343.7;;;-146.1;100.0
45864;BME280;31579;52.354;16.974;2023-02-13T00:57:44;339.6;;;-146.1;100.0
45864;BME280;31579;52.354;16.974;2023-02-13T00:58:48;336.2;;;-146.1;100.0
45864;BME280;31579;52.354;16.974;2023-02-13T00:59:52;333.2;;;-146.1;100.0
45864;BME280;31579;52.354;16.974;2023-02-13T01:00:56;330.4;;;-146.1;100.0
45864;BME280;31579;52.354;16.974;2023-02-13T01:01:59;411.7;;;-146.1;100.0
45864;BME280;31579;52.354;16.974;2023-02-13T01:03:01;488.7;;;-146.1;100.0
45864;BME280;31579;52.354;16.974;2023-02-13T01:04:04;488.0;;;-146.1;100.0
45864;BME280;31579;52.354;16.974;2023-02-13T01:05:08;463.6;;;-146.1;100.0
45864;BME280;31579;52.354;16.974;2023-02-13T01:06:12;444.8;;;-146.1;100.0
45864;BME280;31579;52.354;16.974;2023-02-13T01:07:16;427.7;;;-146.1;100.0
45864;BME280;31579;52.354;16.974;2023-02-13T01:08:20;413.1;;;-146.1;100.0
45864;BME280;31579;52.354;16.974;2023-02-13T01:09:24;402.0;;;-146.1;100.0
45864;BME280;31579;52.354;16.974;2023-02-13T01:10:29;397.5;;;-146.1;100.0
45864;BME280;31579;52.354;16.974;2023-02-13T01:11:33;388.0;;;-146.1;100.0
45864;BME280;31579;52.354;16.974;2023-02-13T01:12:37;379.6;;;-146.1;100.0
45864;BME280;31579;52.354;16.974;2023-02-13T01:13:41;374.3;;;-146.1;100.0
45864;BME280;31579;52.354;16.974;2023-02-13T01:14:45;371.3;;;-146.1;100.0
45864;BME280;31579;52.354;16.974;2023-02-13T01:15:50;372.3;;;-146.1;100.0
45864;BME280;31579;52.354;16.974;2023-02-13T01:16:54;368.7;;;-146.1;100.0
45864;BME280;31579;52.354;16.974;2023-02-13T01:17:58;364.1;;;-146.1;100.0
45864;BME280;31579;52.354;16.974;2023-02-13T01:19:03;359.6;;;-146.1;100.0
45864;BME280;31579;52.354;16.974;2023-02-13T01:20:07;354.5;;;-146.1;100.0
45864;BME280;31579;52.354;16.974;2023-02-13T01:21:14;350.7;;;-146.1;100.0
45864;BME280;31579;52.354;16.974;2023-02-13T01:22:15;348.1;;;-146.1;100.0
45864;BME280;31579;52.354;16.974;2023-02-13T01:23:19;342.3;;;-146.1;100.0
45864;BME280;31579;52.354;16.974;2023-02-13T01:24:21;480.1;;;-146.1;100.0
45864;BME280;31579;52.354;16.974;2023-02-13T01:25:25;433.3;;;-146.1;100.0
45864;BME280;31579;52.354;16.974;2023-02-13T01:26:29;407.7;;;-146.1;100.0
45864;BME280;31579;52.354;16.974;2023-02-13T01:27:34;396.4;;;-146.1;100.0
45864;BME280;31579;52.354;16.974;2023-02-13T01:28:38;384.3;;;-146.1;100.0
45864;BME280;31579;52.354;16.974;2023-02-13T01:29:42;376.5;;;-146.1;100.0
45864;BME280;31579;52.354;16.974;2023-02-13T01:30:51;370.6;;;-146.1;100.0
45864;BME280;31579;52.354;16.974;2023-02-13T01:31:50;365.8;;;-146.1;100.0
45864;BME280;31579;52.354;16.974;2023-02-13T01:32:54;361.9;;;-146.1;100.0
45864;BME280;31579;52.354;16.974;2023-02-13T01:33:59;361.9;;;-146.1;100.0
45864;BME280;31579;52.354;16.974;2023-02-13T01:35:14;420.9;;;-146.1;100.0
45864;BME280;31579;52.354;16.974;2023-02-13T01:36:18;374.1;;;-146.1;100.0
45864;BME280;31579;52.354;16.974;2023-02-13T01:37:22;367.1;;;-146.1;100.0
45864;BME280;31579;52.354;16.974;2023-02-13T01:38:26;363.9;;;-146.1;100.0
45864;BME280;31579;52.354;16.974;2023-02-13T01:39:30;360.3;;;-146.1;100.0
45864;BME280;31579;52.354;16.974;2023-02-13T01:40:34;357.7;;;-146.1;100.0
45864;BME280;31579;52.354;16.974;2023-02-13T01:41:38;354.1;;;-146.1;100.0
45864;BME280;31579;52.354;16.974;2023-02-13T01:42:42;350.7;;;-146.1;100.0
45864;BME280;31579;52.354;16.974;2023-02-13T01:43:49;347.4;;;-146.1;100.0
45864;BME280;31579;52.354;16.974;2023-02-13T01:44:52;344.4;;;-146.1;100.0
45864;BME280;31579;52.354;16.974;2023-02-13T01:45:55;342.6;;;-146.1;100.0
45864;BME280;31579;52.354;16.974;2023-02-13T01:46:58;341.2;;;-146.1;100.0
45864;BME280;31579;52.354;16.974;2023-02-13T01:48:02;480.9;;;-146.1;100.0
45864;BME280;31579;52.354;16.974;2023-02-13T01:51:16;394.4;;;-146.1;100.0
45864;BME280;31579;52.354;16.974;2023-02-13T01:52:17;464.8;;;-146.1;100.0
45864;BME280;31579;52.354;16.974;2023-02-13T01:53:24;418.5;;;-146.1;100.0
45864;BME280;31579;52.354;16.974;2023-02-13T01:54:26;401.7;;;-146.1;100.0
45864;BME280;31579;52.354;16.974;2023-02-13T01:55:29;388.9;;;-146.1;100.0
45864;BME280;31579;52.354;16.974;2023-02-13T01:57:37;370.0;;;-146.1;100.0
45864;BME280;31579;52.354;16.974;2023-02-13T01:58:41;363.5;;;-146.1;100.0
45864;BME280;31579;52.354;16.974;2023-02-13T02:00:49;355.1;;;-146.1;100.0
45864;BME280;31579;52.354;16.974;2023-02-13T02:01:53;352.0;;;-146.1;100.0
45864;BME280;31579;52.354;16.974;2023-02-13T02:02:58;349.0;;;-146.1;100.0
45864;BME280;31579;52.354;16.974;2023-02-13T02:05:06;346.2;;;-146.1;100.0
45864;BME280;31579;52.354;16.974;2023-02-13T02:06:11;343.7;;;-146.1;100.0
45864;BME280;31579;52.354;16.974;2023-02-13T02:07:17;339.8;;;-146.1;100.0
45864;BME280;31579;52.354;16.974;2023-02-13T02:08:18;338.5;;;-146.1;100.0
45864;BME280;31579;52.354;16.974;2023-02-13T02:09:22;339.3;;;-146.1;100.0
45864;BME280;31579;52.354;16.974;2023-02-13T02:10:25;428.9;;;-146.1;100.0
45864;BME280;31579;52.354;16.974;2023-02-13T02:11:42;381.9;;;-146.1;100.0
45864;BME280;31579;52.354;16.974;2023-02-13T02:13:37;359.5;;;-146.1;100.0
45864;BME280;31579;52.354;16.974;2023-02-13T02:14:41;352.4;;;-146.1;100.0
45864;BME280;31579;52.354;16.974;2023-02-13T02:15:45;346.1;;;-146.1;100.0
45864;BME280;31579;52.354;16.974;2023-02-13T02:16:49;340.1;;;-146.1;100.0
45864;BME280;31579;52.354;16.974;2023-02-13T02:17:53;334.5;;;-146.1;100.0
45864;BME280;31579;52.354;16.974;2023-02-13T02:18:57;330.9;;;-146.1;100.0
45864;BME280;31579;52.354;16.974;2023-02-13T02:50:08;322.9;;;-146.1;100.0
45864;BME280;31579;52.354;16.974;2023-02-13T02:52:04;320.4;;;-146.1;100.0
45864;BME280;31579;52.354;16.974;2023-02-13T02:57:23;371.5;;;-146.1;100.0
45864;BME280;31579;52.354;16.974;2023-02-13T02:59:29;351.1;;;-146.1;100.0
45864;BME280;31579;52.354;16.974;2023-02-13T03:00:33;345.8;;;-146.1;100.0
45864;BME280;31579;52.354;16.974;2023-02-13T03:01:37;341.6;;;-146.1;100.0
45864;BME280;31579;52.354;16.974;2023-02-13T03:02:41;338.3;;;-146.1;100.0
45864;BME280;31579;52.354;16.974;2023-02-13T03:03:45;336.7;;;-146.1;100.0
45864;BME280;31579;52.354;16.974;2023-02-13T03:05:54;335.7;;;-146.1;100.0
45864;BME280;31579;52.354;16.974;2023-02-13T03:06:58;331.5;;;-146.1;100.0
45864;BME280;31579;52.354;16.974;2023-02-13T03:08:02;329.5;;;-146.1;100.0
45864;BME280;31579;52.354;16.974;2023-02-13T03:09:08;325.4;;;-146.1;100.0
45864;BME280;31579;52.354;16.974;2023-02-13T03:10:24;322.1;;;-146.1;100.0
45864;BME280;31579;52.354;16.974;2023-02-13T03:11:14;321.2;;;-146.1;100.0
45864;BME280;31579;52.354;16.974;2023-02-13T03:12:18;320.2;;;-146.1;100.0
45864;BME280;31579;52.354;16.974;2023-02-13T03:14:26;317.5;;;-146.1;100.0
45864;BME280;31579;52.354;16.974;2023-02-13T03:15:30;317.8;;;-146.1;100.0
45864;BME280;31579;52.354;16.974;2023-02-13T03:16:34;317.7;;;-146.1;100.0
45864;BME280;31579;52.354;16.974;2023-02-13T03:17:37;395.5;;;-146.1;100.0
45864;BME280;31579;52.354;16.974;2023-02-13T03:18:42;354.9;;;-146.1;100.0
45864;BME280;31579;52.354;16.974;2023-02-13T03:20:52;341.5;;;-146.1;100.0
45864;BME280;31579;52.354;16.974;2023-02-13T03:24:06;332.3;;;-146.1;100.0
45864;BME280;31579;52.354;16.974;2023-02-13T03:25:12;333.1;;;-146.1;100.0
45864;BME280;31579;52.354;16.974;2023-02-13T03:27:19;328.3;;;-146.1;100.0
45864;BME280;31579;52.354;16.974;2023-02-13T03:31:33;324.2;;;-146.1;100.0
45864;BME280;31579;52.354;16.974;2023-02-13T03:32:46;324.7;;;-146.1;100.0
45864;BME280;31579;52.354;16.974;2023-02-13T03:34:43;326.3;;;-146.1;100.0
45864;BME280;31579;52.354;16.974;2023-02-13T03:35:48;322.4;;;-146.1;100.0
45864;BME280;31579;52.354;16.974;2023-02-13T03:37:02;318.9;;;-146.1;100.0
45864;BME280;31579;52.354;16.974;2023-02-13T03:37:55;316.8;;;-146.1;100.0
45864;BME280;31579;52.354;16.974;2023-02-13T03:40:04;315.1;;;-146.1;100.0
45864;BME280;31579;52.354;16.974;2023-02-13T03:41:06;314.9;;;-146.1;100.0
45864;BME280;31579;52.354;16.974;2023-02-13T03:43:14;313.0;;;-146.1;100.0
45864;BME280;31579;52.354;16.974;2023-02-13T03:45:25;313.6;;;-146.1;100.0
45864;BME280;31579;52.354;16.974;2023-02-13T03:46:27;312.1;;;-146.1;100.0
45864;BME280;31579;52.354;16.974;2023-02-13T03:47:32;312.8;;;-146.1;100.0
45864;BME280;31579;52.354;16.974;2023-02-13T03:48:36;310.2;;;-146.1;100.0
45864;BME280;31579;52.354;16.974;2023-02-13T03:49:43;309.2;;;-146.1;100.0
45864;BME280;31579;52.354;16.974;2023-02-13T03:50:44;310.4;;;-146.1;100.0
45864;BME280;31579;52.354;16.974;2023-02-13T03:51:50;310.7;;;-146.1;100.0
45864;BME280;31579;52.354;16.974;2023-02-13T03:52:52;384.3;;;-146.1;100.0
45864;BME280;31579;52.354;16.974;2023-02-13T03:53:55;437.6;;;-146.1;100.0
45864;BME280;31579;52.354;16.974;2023-02-13T03:54:57;465.3;;;-146.1;100.0
45864;BME280;31579;52.354;16.974;2023-02-13T03:56:10;384.7;;;-146.1;100.0
45864;BME280;31579;52.354;16.974;2023-02-13T03:57:14;276.8;;;-146.1;100.0
45864;BME280;31579;52.354;16.974;2023-02-13T03:58:22;284.0;;;-146.1;100.0
45864;BME280;31579;52.354;16.974;2023-02-13T03:59:23;289.8;;;-146.1;100.0
45864;BME280;31579;52.354;16.974;2023-02-13T04:00:26;293.3;;;-146.1;100.0
45864;BME280;31579;52.354;16.974;2023-02-13T04:01:31;295.9;;;-146.1;100.0
45864;BME280;31579;52.354;16.974;2023-02-13T04:02:36;298.5;;;-146.1;100.0
45864;BME280;31579;52.354;16.974;2023-02-13T04:03:42;300.5;;;-146.1;100.0
45864;BME280;31579;52.354;16.974;2023-02-13T04:05:47;302.9;;;-146.1;100.0
45864;BME280;31579;52.354;16.974;2023-02-13T04:07:54;305.2;;;-146.1;100.0
45864;BME280;31579;52.354;16.974;2023-02-13T04:08:58;306.3;;;-146.1;100.0
45864;BME280;31579;52.354;16.974;2023-02-13T04:13:19;277.4;;;-146.1;100.0
45864;BME280;31579;52.354;16.974;2023-02-13T04:14:29;347.0;;;-146.1;100.0
45864;BME280;31579;52.354;16.974;2023-02-13T04:15:28;318.2;;;-146.1;100.0
45864;BME280;31579;52.354;16.974;2023-02-13T04:17:35;312.5;;;-146.1;100.0
45864;BME280;31579;52.354;16.974;2023-02-13T04:18:36;310.9;;;-146.1;100.0
45864;BME280;31579;52.354;16.974;2023-02-13T04:19:40;309.0;;;-146.1;100.0
45864;BME280;31579;52.354;16.974;2023-02-13T04:20:44;308.9;;;-146.1;100.0
45864;BME280;31579;52.354;16.974;2023-02-13T04:21:48;309.6;;;-146.1;100.0
45864;BME280;31579;52.354;16.974;2023-02-13T04:22:53;311.9;;;-146.1;100.0
45864;BME280;31579;52.354;16.974;2023-02-13T04:23:57;310.7;;;-146.1;100.0
45864;BME280;31579;52.354;16.974;2023-02-13T04:25:01;309.3;;;-146.1;100.0
45864;BME280;31579;52.354;16.974;2023-02-13T04:26:06;308.0;;;-146.1;100.0
45864;BME280;31579;52.354;16.974;2023-02-13T04:27:11;310.6;;;-146.1;100.0
45864;BME280;31579;52.354;16.974;2023-02-13T04:28:14;310.1;;;-146.1;100.0
45864;BME280;31579;52.354;16.974;2023-02-13T04:29:19;310.0;;;-146.1;100.0
45864;BME280;31579;52.354;16.974;2023-02-13T04:30:22;309.4;;;-146.1;100.0
45864;BME280;31579;52.354;16.974;2023-02-13T04:31:26;306.9;;;-146.1;100.0
45864;BME280;31579;52.354;16.974;2023-02-13T04:32:30;304.4;;;-146.1;100.0
45864;BME280;31579;52.354;16.974;2023-02-13T04:33:34;302.1;;;-146.1;100.0
45864;BME280;31579;52.354;16.974;2023-02-13T04:34:38;300.6;;;-146.1;100.0
45864;BME280;31579;52.354;16.974;2023-02-13T04:35:41;368.8;;;-146.1;100.0
45864;BME280;31579;52.354;16.974;2023-02-13T04:36:44;411.5;;;-146.1;100.0
45864;BME280;31579;52.354;16.974;2023-02-13T04:37:48;358.6;;;-146.1;100.0
45864;BME280;31579;52.354;16.974;2023-02-13T04:38:52;343.2;;;-146.1;100.0
45864;BME280;31579;52.354;16.974;2023-02-13T04:39:56;333.2;;;-146.1;100.0
45864;BME280;31579;52.354;16.974;2023-02-13T04:41:00;324.9;;;-146.1;100.0
45864;BME280;31579;52.354;16.974;2023-02-13T04:42:05;322.3;;;-146.1;100.0
45864;BME280;31579;52.354;16.974;2023-02-13T04:43:09;316.2;;;-146.1;100.0
45864;BME280;31579;52.354;16.974;2023-02-13T04:44:13;313.2;;;-146.1;100.0
45864;BME280;31579;52.354;16.974;2023-02-13T04:45:17;311.4;;;-146.1;100.0
45864;BME280;31579;52.354;16.974;2023-02-13T04:46:21;311.4;;;-146.1;100.0
45864;BME280;31579;52.354;16.974;2023-02-13T04:47:25;312.8;;;-146.1;100.0
45864;BME280;31579;52.354;16.974;2023-02-13T04:48:29;313.1;;;-146.1;100.0
45864;BME280;31579;52.354;16.974;2023-02-13T04:49:33;312.2;;;-146.1;100.0
45864;BME280;31579;52.354;16.974;2023-02-13T04:50:37;310.7;;;-146.1;100.0
45864;BME280;31579;52.354;16.974;2023-02-13T04:51:41;310.1;;;-146.1;100.0
45864;BME280;31579;52.354;16.974;2023-02-13T04:52:45;307.8;;;-146.1;100.0
45864;BME280;31579;52.354;16.974;2023-02-13T04:53:49;306.7;;;-146.1;100.0
45864;BME280;31579;52.354;16.974;2023-02-13T04:54:53;306.5;;;-146.1;100.0
45864;BME280;31579;52.354;16.974;2023-02-13T04:55:57;306.2;;;-146.1;100.0
45864;BME280;31579;52.354;16.974;2023-02-13T04:57:09;423.5;;;-146.1;100.0
45864;BME280;31579;52.354;16.974;2023-02-13T04:58:13;299.1;;;-146.1;100.0
45864;BME280;31579;52.354;16.974;2023-02-13T04:59:17;277.0;;;-146.1;100.0
45864;BME280;31579;52.354;16.974;2023-02-13T05:00:22;269.7;;;-146.1;100.0
45864;BME280;31579;52.354;16.974;2023-02-13T05:01:24;298.3;;;-146.1;100.0
45864;BME280;31579;52.354;16.974;2023-02-13T05:02:29;280.8;;;-146.1;100.0
45864;BME280;31579;52.354;16.974;2023-02-13T05:03:32;281.6;;;-146.1;100.0
45864;BME280;31579;52.354;16.974;2023-02-13T05:04:36;284.0;;;-146.1;100.0
45864;BME280;31579;52.354;16.974;2023-02-13T05:05:40;286.5;;;-146.1;100.0
45864;BME280;31579;52.354;16.974;2023-02-13T05:06:44;288.2;;;-146.1;100.0
45864;BME280;31579;52.354;16.974;2023-02-13T05:07:48;290.3;;;-146.1;100.0
45864;BME280;31579;52.354;16.974;2023-02-13T05:08:52;292.3;;;-146.1;100.0
45864;BME280;31579;52.354;16.974;2023-02-13T05:09:56;293.2;;;-146.1;100.0
45864;BME280;31579;52.354;16.974;2023-02-13T05:11:00;294.7;;;-146.1;100.0
45864;BME280;31579;52.354;16.974;2023-02-13T05:12:04;442.8;;;-146.1;100.0
45864;BME280;31579;52.354;16.974;2023-02-13T05:13:08;374.1;;;-146.1;100.0
45864;BME280;31579;52.354;16.974;2023-02-13T05:14:12;360.3;;;-146.1;100.0
45864;BME280;31579;52.354;16.974;2023-02-13T05:15:16;352.5;;;-146.1;100.0
45864;BME280;31579;52.354;16.974;2023-02-13T05:16:20;347.7;;;-146.1;100.0
45864;BME280;31579;52.354;16.974;2023-02-13T05:17:24;343.5;;;-146.1;100.0
45864;BME280;31579;52.354;16.974;2023-02-13T05:18:28;340.9;;;-146.1;100.0
45864;BME280;31579;52.354;16.974;2023-02-13T05:19:32;340.0;;;-146.1;100.0
45864;BME280;31579;52.354;16.974;2023-02-13T05:20:36;337.4;;;-146.1;100.0
45864;BME280;31579;52.354;16.974;2023-02-13T05:21:40;334.8;;;-146.1;100.0
45864;BME280;31579;52.354;16.974;2023-02-13T05:22:58;369.9;;;-146.1;100.0
45864;BME280;31579;52.354;16.974;2023-02-13T05:24:00;364.8;;;-146.1;100.0
45864;BME280;31579;52.354;16.974;2023-02-13T05:25:05;327.5;;;-146.1;100.0
45864;BME280;31579;52.354;16.974;2023-02-13T05:26:09;323.8;;;-146.1;100.0
45864;BME280;31579;52.354;16.974;2023-02-13T05:27:13;325.0;;;-146.1;100.0
45864;BME280;31579;52.354;16.974;2023-02-13T05:28:17;325.5;;;-146.1;100.0
45864;BME280;31579;52.354;16.974;2023-02-13T05:29:21;326.1;;;-146.1;100.0
45864;BME280;31579;52.354;16.974;2023-02-13T05:30:25;327.2;;;-146.1;100.0
45864;BME280;31579;52.354;16.974;2023-02-13T05:31:29;326.0;;;-146.1;100.0
45864;BME280;31579;52.354;16.974;2023-02-13T05:32:33;324.6;;;-146.1;100.0
45864;BME280;31579;52.354;16.974;2023-02-13T05:33:38;325.2;;;-146.1;100.0
45864;BME280;31579;52.354;16.974;2023-02-13T05:34:42;325.3;;;-146.1;100.0
45864;BME280;31579;52.354;16.974;2023-02-13T05:35:46;324.9;;;-146.1;100.0
45864;BME280;31579;52.354;16.974;2023-02-13T05:36:51;326.8;;;-146.1;100.0
45864;BME280;31579;52.354;16.974;2023-02-13T05:37:55;325.5;;;-146.1;100.0
45864;BME280;31579;52.354;16.974;2023-02-13T05:38:59;324.5;;;-146.1;100.0
45864;BME280;31579;52.354;16.974;2023-02-13T05:40:04;399.9;;;-146.1;100.0
45864;BME280;31579;52.354;16.974;2023-02-13T05:41:07;360.9;;;-146.1;100.0
45864;BME280;31579;52.354;16.974;2023-02-13T05:42:11;351.5;;;-146.1;100.0
45864;BME280;31579;52.354;16.974;2023-02-13T05:43:15;344.8;;;-146.1;100.0
45864;BME280;31579;52.354;16.974;2023-02-13T05:44:18;421.4;;;-146.1;100.0
45864;BME280;31579;52.354;16.974;2023-02-13T05:45:22;377.1;;;-146.1;100.0
45864;BME280;31579;52.354;16.974;2023-02-13T05:46:26;367.5;;;-146.1;100.0
45864;BME280;31579;52.354;16.974;2023-02-13T05:47:30;361.7;;;-146.1;100.0
45864;BME280;31579;52.354;16.974;2023-02-13T05:48:35;359.2;;;-146.1;100.0
45864;BME280;31579;52.354;16.974;2023-02-13T05:49:39;355.3;;;-146.1;100.0
45864;BME280;31579;52.354;16.974;2023-02-13T05:50:45;349.2;;;-146.1;100.0
45864;BME280;31579;52.354;16.974;2023-02-13T05:51:46;345.5;;;-146.1;100.0
45864;BME280;31579;52.354;16.974;2023-02-13T05:52:50;343.7;;;-146.1;100.0
45864;BME280;31579;52.354;16.974;2023-02-13T05:53:52;484.0;;;-146.1;100.0
45864;BME280;31579;52.354;16.974;2023-02-13T05:54:54;501.5;;;-146.1;100.0
45864;BME280;31579;52.354;16.974;2023-02-13T05:56:06;334.8;;;-146.1;100.0
45864;BME280;31579;52.354;16.974;2023-02-13T05:57:10;327.9;;;-146.1;100.0
45864;BME280;31579;52.354;16.974;2023-02-13T05:58:14;415.2;;;-146.1;100.0
45864;BME280;31579;52.354;16.974;2023-02-13T05:59:18;375.7;;;-146.1;100.0
45864;BME280;31579;52.354;16.974;2023-02-13T06:00:23;365.4;;;-146.1;100.0
45864;BME280;31579;52.354;16.974;2023-02-13T06:01:26;359.7;;;-146.1;100.0
45864;BME280;31579;52.354;16.974;2023-02-13T06:02:30;355.8;;;-146.1;100.0
45864;BME280;31579;52.354;16.974;2023-02-13T06:03:34;352.1;;;-146.1;100.0
45864;BME280;31579;52.354;16.974;2023-02-13T06:04:38;348.6;;;-146.1;100.0
45864;BME280;31579;52.354;16.974;2023-02-13T06:05:43;349.2;;;-146.1;100.0
45864;BME280;31579;52.354;16.974;2023-02-13T06:06:48;347.7;;;-146.1;100.0
45864;BME280;31579;52.354;16.974;2023-02-13T06:07:51;342.9;;;-146.1;100.0
45864;BME280;31579;52.354;16.974;2023-02-13T06:08:55;337.8;;;-146.1;100.0
45864;BME280;31579;52.354;16.974;2023-02-13T06:10:00;334.7;;;-146.1;100.0
45864;BME280;31579;52.354;16.974;2023-02-13T06:11:03;415.7;;;-146.1;100.0
45864;BME280;31579;52.354;16.974;2023-02-13T06:12:06;376.2;;;-146.1;100.0
45864;BME280;31579;52.354;16.974;2023-02-13T06:13:10;363.9;;;-146.1;100.0
45864;BME280;31579;52.354;16.974;2023-02-13T06:14:15;357.7;;;-146.1;100.0
45864;BME280;31579;52.354;16.974;2023-02-13T06:15:19;352.7;;;-146.1;100.0
45864;BME280;31579;52.354;16.974;2023-02-13T06:16:22;438.0;;;-146.1;100.0
45864;BME280;31579;52.354;16.974;2023-02-13T06:17:26;388.8;;;-146.1;100.0
45864;BME280;31579;52.354;16.974;2023-02-13T06:18:30;378.3;;;-146.1;100.0
45864;BME280;31579;52.354;16.974;2023-02-13T06:19:34;370.3;;;-146.1;100.0
45864;BME280;31579;52.354;16.974;2023-02-13T06:20:38;365.2;;;-146.1;100.0
45864;BME280;31579;52.354;16.974;2023-02-13T06:21:42;360.1;;;-146.1;100.0
45864;BME280;31579;52.354;16.974;2023-02-13T06:22:48;357.9;;;-146.1;100.0
45864;BME280;31579;52.354;16.974;2023-02-13T06:23:50;355.6;;;-146.1;100.0
45864;BME280;31579;52.354;16.974;2023-02-13T06:24:54;352.7;;;-146.1;100.0
45864;BME280;31579;52.354;16.974;2023-02-13T06:26:09;345.7;;;-146.1;100.0
45864;BME280;31579;52.354;16.974;2023-02-13T06:27:12;345.9;;;-146.1;100.0
45864;BME280;31579;52.354;16.974;2023-02-13T06:28:16;327.4;;;-146.1;100.0
45864;BME280;31579;52.354;16.974;2023-02-13T06:29:19;404.4;;;-146.1;100.0
45864;BME280;31579;52.354;16.974;2023-02-13T06:30:23;364.2;;;-146.1;100.0
45864;BME280;31579;52.354;16.974;2023-02-13T06:31:27;356.4;;;-146.1;100.0
45864;BME280;31579;52.354;16.974;2023-02-13T06:32:31;352.6;;;-146.1;100.0
45864;BME280;31579;52.354;16.974;2023-02-13T06:33:35;349.2;;;-146.1;100.0
45864;BME280;31579;52.354;16.974;2023-02-13T06:34:40;350.0;;;-146.1;100.0
45864;BME280;31579;52.354;16.974;2023-02-13T06:35:44;348.2;;;-146.1;100.0
45864;BME280;31579;52.354;16.974;2023-02-13T06:36:48;347.3;;;-146.1;100.0
45864;BME280;31579;52.354;16.974;2023-02-13T06:37:52;346.3;;;-146.1;100.0
45864;BME280;31579;52.354;16.974;2023-02-13T06:38:56;345.2;;;-146.1;100.0
45864;BME280;31579;52.354;16.974;2023-02-13T06:40:00;343.9;;;-146.1;100.0
45864;BME280;31579;52.354;16.974;2023-02-13T06:41:05;479.4;;;-146.1;100.0
45864;BME280;31579;52.354;16.974;2023-02-13T06:42:08;421.9;;;-146.1;100.0
45864;BME280;31579;52.354;16.974;2023-02-13T06:43:13;400.9;;;-146.1;100.0
45864;BME280;31579;52.354;16.974;2023-02-13T06:44:16;387.3;;;-146.1;100.0
45864;BME280;31579;52.354;16.974;2023-02-13T06:45:20;378.2;;;-146.1;100.0
45864;BME280;31579;52.354;16.974;2023-02-13T06:46:24;372.0;;;-146.1;100.0